createdAt,value
2018-08-03T00:00:06.875Z,6.53
2018-08-03T00:05:12.430Z,6.05
2018-08-03T00:10:17.907Z,6.22
2018-08-03T00:15:22.587Z,7.03
2018-08-03T00:20:27.635Z,6.72
2018-08-03T00:25:32.314Z,6.53
2018-08-03T00:30:37.104Z,7.05
2018-08-03T00:35:41.950Z,7.15
2018-08-03T00:40:46.891Z,7.40
2018-08-03T00:45:51.721Z,7.42
2018-08-03T00:50:56.583Z,7.05
2018-08-03T00:56:01.241Z,8.23
2018-08-03T01:01:06.010Z,7.22
2018-08-03T01:06:10.899Z,7.30
2018-08-03T01:11:15.661Z,7.35
2018-08-03T01:16:20.577Z,7.72
2018-08-03T01:21:25.388Z,7.22
2018-08-03T01:26:30.331Z,7.00
2018-08-03T01:31:35.252Z,7.50
2018-08-03T01:36:40.129Z,7.60
2018-08-03T01:41:45.766Z,7.90
2018-08-03T01:46:50.897Z,7.50
2018-08-03T01:51:55.778Z,7.40
2018-08-03T01:57:00.611Z,7.30
2018-08-03T02:02:05.968Z,7.15
2018-08-03T02:07:10.778Z,7.75
2018-08-03T02:12:15.601Z,7.40
2018-08-03T02:17:20.301Z,7.40
2018-08-03T02:22:25.050Z,7.60
2018-08-03T02:27:29.918Z,8.03
2018-08-03T02:32:35.241Z,7.97
2018-08-03T02:37:40.214Z,8.60
2018-08-03T02:42:45.047Z,8.00
2018-08-03T02:47:49.888Z,8.43
2018-08-03T02:52:54.714Z,8.25
2018-08-03T02:57:59.475Z,8.40
2018-08-03T03:03:05.111Z,8.30
2018-08-03T03:08:09.966Z,8.05
2018-08-03T03:13:14.802Z,8.85
2018-08-03T03:18:19.732Z,8.73
2018-08-03T03:23:24.577Z,8.25
2018-08-03T03:28:29.309Z,8.25
2018-08-03T03:33:34.200Z,8.20
2018-08-03T03:38:39.718Z,8.63
2018-08-03T03:43:44.451Z,8.45
2018-08-03T03:48:49.190Z,8.60
2018-08-03T03:53:54.109Z,9.03
2018-08-03T03:58:58.838Z,9.48
2018-08-03T04:04:04.179Z,8.30
2018-08-03T04:09:11.946Z,9.35
2018-08-03T04:14:17.355Z,8.23
2018-08-03T04:19:22.208Z,9.18
2018-08-03T04:24:27.119Z,8.65
2018-08-03T04:29:31.965Z,8.65
2018-08-03T04:34:36.919Z,8.00
2018-08-03T04:39:41.647Z,8.00
2018-08-03T04:44:46.906Z,7.78
2018-08-03T04:49:51.737Z,8.20
2018-08-03T04:54:56.487Z,8.20
2018-08-03T05:00:01.165Z,9.00
2018-08-03T05:05:05.357Z,7.75
2018-08-03T05:10:09.956Z,8.35
2018-08-03T05:15:14.895Z,8.98
2018-08-03T05:20:21.577Z,8.70
2018-08-03T05:25:27.402Z,8.70
2018-08-03T05:30:32.284Z,8.88
2018-08-03T05:35:36.917Z,8.68
2018-08-03T05:40:41.749Z,8.45
2018-08-03T05:45:47.001Z,8.50
2018-08-03T05:50:51.749Z,8.35
2018-08-03T05:55:56.376Z,8.38
2018-08-03T06:01:01.206Z,7.90
2018-08-03T06:06:05.962Z,8.50
2018-08-03T06:11:11.749Z,8.70
2018-08-03T06:16:16.479Z,8.58
2018-08-03T06:21:21.306Z,9.00
2018-08-03T06:26:26.192Z,8.50
2018-08-03T06:31:31.168Z,8.73
2018-08-03T06:36:36.434Z,9.05
2018-08-03T06:41:41.398Z,8.95
2018-08-03T06:46:46.318Z,8.28
2018-08-03T06:51:51.074Z,8.53
2018-08-03T06:56:56.103Z,8.95
2018-08-03T07:02:00.853Z,8.65
2018-08-03T07:07:06.415Z,8.88
2018-08-03T07:12:11.214Z,8.95
2018-08-03T07:17:16.087Z,9.20
2018-08-03T07:22:20.864Z,9.48
2018-08-03T07:27:25.839Z,9.05
2018-08-03T07:32:30.876Z,9.20
2018-08-03T07:37:35.749Z,8.93
2018-08-03T07:42:40.450Z,9.23
2018-08-03T07:47:45.286Z,9.18
2018-08-03T07:52:50.845Z,9.10
2018-08-03T07:57:56.014Z,9.00
2018-08-03T08:03:00.958Z,9.23
2018-08-03T08:08:05.893Z,8.63
2018-08-03T08:13:10.754Z,8.68
2018-08-03T08:18:15.637Z,8.73
2018-08-03T08:23:20.330Z,8.70
2018-08-03T08:28:25.019Z,8.70
2018-08-03T08:33:29.941Z,14.93
2018-08-03T08:38:34.819Z,8.80
2018-08-03T08:43:39.665Z,9.33
2018-08-03T08:48:44.589Z,10.05
2018-08-03T08:53:54.550Z,9.23
2018-08-03T08:58:59.290Z,10.13
2018-08-03T09:04:04.129Z,10.40
2018-08-03T09:09:10.648Z,11.73
2018-08-03T09:14:15.422Z,11.78
2018-08-03T09:19:20.075Z,12.82
2018-08-03T09:24:25.078Z,11.28
2018-08-03T09:29:30.489Z,12.33
2018-08-03T09:34:35.304Z,9.83
2018-08-03T09:39:40.326Z,12.90
2018-08-03T09:44:45.412Z,11.63
2018-08-03T09:49:50.227Z,11.65
2018-08-03T09:54:55.860Z,9.93
2018-08-03T10:00:00.662Z,11.85
2018-08-03T10:05:06.373Z,10.93
2018-08-03T10:10:11.129Z,10.43
2018-08-03T10:15:15.874Z,11.75
2018-08-03T10:20:20.531Z,10.30
2018-08-03T10:25:25.525Z,9.75
2018-08-03T10:30:30.661Z,9.45
2018-08-03T10:35:35.398Z,9.60
2018-08-03T10:40:40.277Z,9.30
2018-08-03T10:45:44.502Z,10.03
2018-08-03T10:50:49.249Z,8.78
2018-08-03T10:55:54.017Z,9.88
2018-08-03T11:00:58.661Z,9.48
2018-08-03T11:06:03.617Z,9.33
2018-08-03T11:11:08.323Z,8.25
2018-08-03T11:16:13.740Z,7.95
2018-08-03T11:21:18.661Z,8.30
2018-08-03T11:26:23.492Z,8.13
2018-08-03T11:31:28.729Z,8.03
2018-08-03T11:36:33.672Z,9.33
2018-08-03T11:41:38.510Z,7.53
2018-08-03T11:46:43.357Z,7.92
2018-08-03T11:51:48.076Z,7.60
2018-08-03T11:56:53.879Z,6.97
2018-08-03T12:01:58.589Z,6.47
2018-08-03T12:07:03.769Z,6.50
2018-08-03T12:12:08.918Z,6.30
2018-08-03T12:17:14.234Z,6.28
2018-08-03T12:22:19.682Z,6.17
2018-08-03T12:27:25.217Z,6.15
2018-08-03T12:32:30.077Z,6.45
2018-08-03T12:37:34.799Z,6.35
2018-08-03T12:42:39.547Z,5.95
2018-08-03T12:47:44.389Z,6.55
2018-08-03T12:52:49.381Z,6.28
2018-08-03T12:57:55.090Z,6.15
2018-08-03T13:02:59.934Z,6.28
2018-08-03T13:08:05.683Z,6.53
2018-08-03T13:13:10.428Z,5.92
2018-08-03T13:18:15.065Z,6.00
2018-08-03T13:23:20.276Z,6.03
2018-08-03T13:28:25.711Z,6.78
2018-08-03T13:33:30.124Z,6.47
2018-08-03T13:38:34.818Z,6.17
2018-08-03T13:43:39.566Z,6.83
2018-08-03T13:48:45.025Z,6.80
2018-08-03T13:53:49.851Z,6.78
2018-08-03T13:58:54.603Z,6.97
2018-08-03T14:03:59.778Z,6.90
2018-08-03T14:09:05.683Z,6.92
2018-08-03T14:14:10.545Z,6.87
2018-08-03T14:19:15.382Z,6.90
2018-08-03T14:24:20.086Z,6.45
2018-08-03T14:29:25.077Z,6.45
2018-08-03T14:34:30.245Z,6.72
2018-08-03T14:39:35.099Z,6.58
2018-08-03T14:44:39.174Z,6.45
2018-08-03T14:49:43.791Z,7.03
2018-08-03T14:54:49.593Z,6.90
2018-08-03T14:59:54.590Z,6.33
2018-08-03T15:04:59.313Z,6.58
2018-08-03T15:10:04.059Z,6.42
2018-08-03T15:15:08.966Z,7.12
2018-08-03T15:20:13.687Z,6.65
2018-08-03T15:25:18.425Z,6.60
2018-08-03T15:30:24.033Z,6.47
2018-08-03T15:35:28.886Z,6.80
2018-08-03T15:40:33.698Z,6.25
2018-08-03T15:45:38.315Z,18.07
2018-08-03T15:50:43.176Z,6.30
2018-08-03T15:55:48.639Z,6.87
2018-08-03T16:00:53.465Z,6.62
2018-08-03T16:05:58.218Z,6.60
2018-08-03T16:11:02.963Z,6.90
2018-08-03T16:16:07.682Z,6.55
2018-08-03T16:21:12.399Z,6.53
2018-08-03T16:26:17.274Z,6.92
2018-08-03T16:31:22.073Z,6.45
2018-08-03T16:36:26.913Z,6.97
2018-08-03T16:41:31.810Z,7.05
2018-08-03T16:46:36.759Z,7.35
2018-08-03T16:51:41.411Z,6.80
2018-08-03T16:56:46.215Z,7.03
2018-08-03T17:01:51.301Z,7.70
2018-08-03T17:06:56.206Z,7.65
2018-08-03T17:12:01.047Z,7.97
2018-08-03T17:17:05.950Z,7.62
2018-08-03T17:22:10.774Z,6.97
2018-08-03T17:27:15.834Z,7.75
2018-08-03T17:32:20.781Z,7.90
2018-08-03T17:37:25.666Z,7.20
2018-08-03T17:42:30.423Z,7.33
2018-08-03T17:47:35.629Z,7.60
2018-08-03T17:52:41.267Z,7.60
2018-08-03T17:57:46.025Z,7.20
2018-08-03T18:02:51.377Z,8.08
2018-08-03T18:07:56.106Z,7.40
2018-08-03T18:13:01.035Z,7.90
2018-08-03T18:18:05.982Z,7.72
2018-08-03T18:23:11.030Z,8.15
2018-08-03T18:28:15.885Z,7.72
2018-08-03T18:33:20.566Z,7.58
2018-08-03T18:38:25.559Z,7.70
2018-08-03T18:43:30.306Z,8.15
2018-08-03T18:48:34.664Z,8.10
2018-08-03T18:53:39.442Z,8.33
2018-08-03T18:58:44.138Z,8.23
2018-08-03T19:03:48.794Z,8.65
2018-08-03T19:08:54.164Z,8.08
2018-08-03T19:13:59.025Z,9.25
2018-08-03T19:19:04.460Z,9.03
2018-08-03T19:24:10.044Z,7.78
2018-08-03T19:29:14.779Z,8.53
2018-08-03T19:34:20.290Z,9.43
2018-08-03T19:39:25.141Z,9.25
2018-08-03T19:44:29.813Z,9.28
2018-08-03T19:49:34.469Z,8.38
2018-08-03T19:54:39.235Z,8.95
2018-08-03T19:59:43.973Z,9.08
2018-08-03T20:04:48.800Z,8.23
2018-08-03T20:09:53.517Z,8.25
2018-08-03T20:14:57.721Z,9.10
2018-08-03T20:20:02.551Z,8.75
2018-08-03T20:25:07.450Z,9.13
2018-08-03T20:30:12.394Z,8.68
2018-08-03T20:35:17.755Z,9.43
2018-08-03T20:40:22.598Z,8.33
2018-08-03T20:45:27.551Z,8.40
2018-08-03T20:50:32.144Z,9.08
2018-08-03T20:55:36.923Z,9.10
2018-08-03T21:00:41.465Z,9.05
2018-08-03T21:05:46.110Z,9.00
2018-08-03T21:10:51.630Z,8.83
2018-08-03T21:15:56.479Z,9.30
2018-08-03T21:21:01.955Z,9.25
2018-08-03T21:26:06.174Z,9.40
2018-08-03T21:31:11.898Z,8.93
2018-08-03T21:36:16.594Z,9.03
2018-08-03T21:41:21.282Z,9.30
2018-08-03T21:46:26.078Z,9.65
2018-08-03T21:51:30.828Z,9.28
2018-08-03T21:56:35.542Z,8.83
2018-08-03T22:01:40.356Z,9.23
2018-08-03T22:06:45.161Z,9.73
2018-08-03T22:11:50.111Z,9.65
2018-08-03T22:16:55.046Z,9.65
2018-08-03T22:21:59.751Z,9.43
2018-08-03T22:27:05.476Z,9.25
2018-08-03T22:32:11.284Z,10.08
2018-08-03T22:37:17.094Z,9.50
2018-08-03T22:42:21.936Z,9.38
2018-08-03T22:47:26.717Z,8.45
2018-08-03T22:52:31.412Z,9.25
2018-08-03T22:57:36.101Z,9.53
2018-08-03T23:02:40.929Z,8.88
2018-08-03T23:07:45.663Z,9.25
2018-08-03T23:12:50.414Z,8.78
2018-08-03T23:17:55.237Z,8.08
2018-08-03T23:23:00.421Z,8.33
2018-08-03T23:28:05.149Z,8.83
2018-08-03T23:33:09.899Z,8.25
2018-08-03T23:38:15.308Z,9.10
2018-08-03T23:43:20.164Z,9.80
2018-08-03T23:48:25.306Z,9.60
2018-08-03T23:53:30.556Z,9.33
2018-08-03T23:58:35.493Z,9.68
